sensor_id;sensor_type;location;lat;lon;timestamp;temperature;humidity
14095;DHT22;18096;48.142;16.290;2023-04-09T00:01:03;6.00;99.90
14095;DHT22;18096;48.142;16.290;2023-04-09T00:03:29;6.00;99.90
14095;DHT22;18096;48.142;16.290;2023-04-09T00:05:54;6.00;99.90
14095;DHT22;18096;48.142;16.290;2023-04-09T00:08:20;6.00;99.90
14095;DHT22;18096;48.142;16.290;2023-04-09T00:10:48;6.00;99.90
14095;DHT22;18096;48.142;16.290;2023-04-09T00:13:14;6.00;99.90
14095;DHT22;18096;48.142;16.290;2023-04-09T00:15:40;6.00;99.90
14095;DHT22;18096;48.142;16.290;2023-04-09T00:18:06;6.00;99.90
14095;DHT22;18096;48.142;16.290;2023-04-09T00:20:31;6.00;99.90
14095;DHT22;18096;48.142;16.290;2023-04-09T00:22:57;6.00;99.90
14095;DHT22;18096;48.142;16.290;2023-04-09T00:25:23;6.00;99.90
14095;DHT22;18096;48.142;16.290;2023-04-09T00:27:48;6.00;99.90
14095;DHT22;18096;48.142;16.290;2023-04-09T00:30:14;6.00;99.90
14095;DHT22;18096;48.142;16.290;2023-04-09T00:32:40;6.00;99.90
14095;DHT22;18096;48.142;16.290;2023-04-09T00:35:06;6.00;99.90
14095;DHT22;18096;48.142;16.290;2023-04-09T00:37:32;6.00;99.90
14095;DHT22;18096;48.142;16.290;2023-04-09T00:39:58;5.90;99.90
14095;DHT22;18096;48.142;16.290;2023-04-09T00:42:24;5.90;99.90
14095;DHT22;18096;48.142;16.290;2023-04-09T00:44:50;6.00;99.90
14095;DHT22;18096;48.142;16.290;2023-04-09T00:47:17;5.90;99.90
14095;DHT22;18096;48.142;16.290;2023-04-09T00:49:43;5.90;99.90
14095;DHT22;18096;48.142;16.290;2023-04-09T00:52:09;5.90;99.90
14095;DHT22;18096;48.142;16.290;2023-04-09T00:54:35;5.90;99.90
14095;DHT22;18096;48.142;16.290;2023-04-09T00:57:02;5.90;99.90
14095;DHT22;18096;48.142;16.290;2023-04-09T00:59:28;5.90;99.90
14095;DHT22;18096;48.142;16.290;2023-04-09T01:01:54;5.90;99.90
14095;DHT22;18096;48.142;16.290;2023-04-09T01:04:20;5.90;99.90
14095;DHT22;18096;48.142;16.290;2023-04-09T01:07:00;5.90;99.90
14095;DHT22;18096;48.142;16.290;2023-04-09T01:12:32;5.90;99.90
14095;DHT22;18096;48.142;16.290;2023-04-09T01:15:10;5.80;99.90
14095;DHT22;18096;48.142;16.290;2023-04-09T01:17:45;5.80;99.90
14095;DHT22;18096;48.142;16.290;2023-04-09T01:20:26;5.80;99.90
14095;DHT22;18096;48.142;16.290;2023-04-09T01:26:06;5.70;99.90
14095;DHT22;18096;48.142;16.290;2023-04-09T01:29:01;5.70;99.90
14095;DHT22;18096;48.142;16.290;2023-04-09T01:31:29;5.70;99.90
14095;DHT22;18096;48.142;16.290;2023-04-09T01:33:56;5.70;99.90
14095;DHT22;18096;48.142;16.290;2023-04-09T01:36:23;5.60;99.90
14095;DHT22;18096;48.142;16.290;2023-04-09T01:38:51;5.70;99.90
14095;DHT22;18096;48.142;16.290;2023-04-09T01:41:19;5.70;99.90
14095;DHT22;18096;48.142;16.290;2023-04-09T01:43:50;5.70;99.90
14095;DHT22;18096;48.142;16.290;2023-04-09T01:46:20;5.70;99.90
14095;DHT22;18096;48.142;16.290;2023-04-09T01:48:47;5.70;99.90
14095;DHT22;18096;48.142;16.290;2023-04-09T01:51:13;5.70;99.90
14095;DHT22;18096;48.142;16.290;2023-04-09T01:53:40;5.70;99.90
14095;DHT22;18096;48.142;16.290;2023-04-09T01:56:07;5.70;99.90
14095;DHT22;18096;48.142;16.290;2023-04-09T01:58:33;5.60;99.90
14095;DHT22;18096;48.142;16.290;2023-04-09T02:03:34;5.70;99.90
14095;DHT22;18096;48.142;16.290;2023-04-09T02:09:08;5.70;99.90
14095;DHT22;18096;48.142;16.290;2023-04-09T02:11:37;5.70;99.90
14095;DHT22;18096;48.142;16.290;2023-04-09T02:14:06;5.70;99.90
14095;DHT22;18096;48.142;16.290;2023-04-09T02:16:36;5.70;99.90
14095;DHT22;18096;48.142;16.290;2023-04-09T02:19:02;5.60;99.90
14095;DHT22;18096;48.142;16.290;2023-04-09T02:21:28;5.60;99.90
14095;DHT22;18096;48.142;16.290;2023-04-09T02:23:54;5.60;99.90
14095;DHT22;18096;48.142;16.290;2023-04-09T02:26:21;5.50;99.90
14095;DHT22;18096;48.142;16.290;2023-04-09T02:28:47;5.60;99.90
14095;DHT22;18096;48.142;16.290;2023-04-09T02:31:12;5.60;99.90
14095;DHT22;18096;48.142;16.290;2023-04-09T02:33:38;5.50;99.90
14095;DHT22;18096;48.142;16.290;2023-04-09T02:36:04;5.50;99.90
14095;DHT22;18096;48.142;16.290;2023-04-09T02:38:30;5.50;99.90
14095;DHT22;18096;48.142;16.290;2023-04-09T02:40:56;5.50;99.90
14095;DHT22;18096;48.142;16.290;2023-04-09T02:43:22;5.50;99.90
14095;DHT22;18096;48.142;16.290;2023-04-09T02:45:48;5.50;99.90
14095;DHT22;18096;48.142;16.290;2023-04-09T02:48:14;5.50;99.90
14095;DHT22;18096;48.142;16.290;2023-04-09T02:50:39;5.50;99.90
14095;DHT22;18096;48.142;16.290;2023-04-09T02:53:05;5.50;99.90
14095;DHT22;18096;48.142;16.290;2023-04-09T02:55:31;5.50;99.90
14095;DHT22;18096;48.142;16.290;2023-04-09T02:57:56;5.40;99.90
14095;DHT22;18096;48.142;16.290;2023-04-09T03:00:22;5.40;99.90
14095;DHT22;18096;48.142;16.290;2023-04-09T03:02:48;5.40;99.90
14095;DHT22;18096;48.142;16.290;2023-04-09T03:05:13;5.40;99.90
14095;DHT22;18096;48.142;16.290;2023-04-09T03:07:39;5.40;99.90
14095;DHT22;18096;48.142;16.290;2023-04-09T03:10:05;5.30;99.90
14095;DHT22;18096;48.142;16.290;2023-04-09T03:12:31;5.30;99.90
14095;DHT22;18096;48.142;16.290;2023-04-09T03:14:56;5.30;99.90
14095;DHT22;18096;48.142;16.290;2023-04-09T03:17:22;5.30;99.90
14095;DHT22;18096;48.142;16.290;2023-04-09T03:19:51;5.30;99.90
14095;DHT22;18096;48.142;16.290;2023-04-09T03:22:17;5.30;99.90
14095;DHT22;18096;48.142;16.290;2023-04-09T03:24:43;5.40;99.90
14095;DHT22;18096;48.142;16.290;2023-04-09T03:27:08;5.30;99.90
14095;DHT22;18096;48.142;16.290;2023-04-09T03:29:34;5.30;99.90
14095;DHT22;18096;48.142;16.290;2023-04-09T03:31:59;5.30;99.90
14095;DHT22;18096;48.142;16.290;2023-04-09T03:34:25;5.30;99.90
14095;DHT22;18096;48.142;16.290;2023-04-09T03:36:51;5.30;99.90
14095;DHT22;18096;48.142;16.290;2023-04-09T03:39:16;5.40;99.90
14095;DHT22;18096;48.142;16.290;2023-04-09T03:41:42;5.40;99.90
14095;DHT22;18096;48.142;16.290;2023-04-09T03:44:08;5.30;99.90
14095;DHT22;18096;48.142;16.290;2023-04-09T03:46:33;5.30;99.90
14095;DHT22;18096;48.142;16.290;2023-04-09T03:48:59;5.40;99.90
14095;DHT22;18096;48.142;16.290;2023-04-09T03:51:25;5.30;99.90
14095;DHT22;18096;48.142;16.290;2023-04-09T03:53:51;5.30;99.90
14095;DHT22;18096;48.142;16.290;2023-04-09T03:56:17;5.40;99.90
14095;DHT22;18096;48.142;16.290;2023-04-09T03:58:43;5.40;99.90
14095;DHT22;18096;48.142;16.290;2023-04-09T04:01:08;5.30;99.90
14095;DHT22;18096;48.142;16.290;2023-04-09T04:03:34;5.40;99.90
14095;DHT22;18096;48.142;16.290;2023-04-09T04:06:02;5.40;99.90
14095;DHT22;18096;48.142;16.290;2023-04-09T04:08:28;5.40;99.90
14095;DHT22;18096;48.142;16.290;2023-04-09T04:10:54;5.40;99.90
14095;DHT22;18096;48.142;16.290;2023-04-09T04:13:20;5.30;99.90
14095;DHT22;18096;48.142;16.290;2023-04-09T04:15:46;5.30;99.90
14095;DHT22;18096;48.142;16.290;2023-04-09T04:18:12;5.30;99.90
14095;DHT22;18096;48.142;16.290;2023-04-09T04:20:38;5.30;99.90
14095;DHT22;18096;48.142;16.290;2023-04-09T04:23:04;5.30;99.90
14095;DHT22;18096;48.142;16.290;2023-04-09T04:25:30;5.30;99.90
14095;DHT22;18096;48.142;16.290;2023-04-09T04:27:56;5.40;99.90
14095;DHT22;18096;48.142;16.290;2023-04-09T04:30:22;5.40;99.90
14095;DHT22;18096;48.142;16.290;2023-04-09T04:32:48;5.40;99.90
14095;DHT22;18096;48.142;16.290;2023-04-09T04:35:14;5.40;99.90
14095;DHT22;18096;48.142;16.290;2023-04-09T04:37:39;5.40;99.90
14095;DHT22;18096;48.142;16.290;2023-04-09T04:40:06;5.40;99.90
14095;DHT22;18096;48.142;16.290;2023-04-09T04:42:33;5.40;99.90
14095;DHT22;18096;48.142;16.290;2023-04-09T04:44:58;5.40;99.90
14095;DHT22;18096;48.142;16.290;2023-04-09T04:47:24;5.40;99.90
14095;DHT22;18096;48.142;16.290;2023-04-09T04:49:50;5.50;99.90
14095;DHT22;18096;48.142;16.290;2023-04-09T04:52:16;5.50;99.90
14095;DHT22;18096;48.142;16.290;2023-04-09T04:54:42;5.50;99.90
14095;DHT22;18096;48.142;16.290;2023-04-09T04:57:08;5.50;99.90
14095;DHT22;18096;48.142;16.290;2023-04-09T04:59:36;5.50;99.90
14095;DHT22;18096;48.142;16.290;2023-04-09T05:02:03;5.50;99.90
14095;DHT22;18096;48.142;16.290;2023-04-09T05:04:28;5.60;99.90
14095;DHT22;18096;48.142;16.290;2023-04-09T05:06:54;5.60;99.90
14095;DHT22;18096;48.142;16.290;2023-04-09T05:09:20;5.60;99.90
14095;DHT22;18096;48.142;16.290;2023-04-09T05:11:46;5.60;99.90
14095;DHT22;18096;48.142;16.290;2023-04-09T05:14:11;5.60;99.90
14095;DHT22;18096;48.142;16.290;2023-04-09T05:16:38;5.50;99.90
14095;DHT22;18096;48.142;16.290;2023-04-09T05:19:03;5.60;99.90
14095;DHT22;18096;48.142;16.290;2023-04-09T05:21:29;5.60;99.90
14095;DHT22;18096;48.142;16.290;2023-04-09T05:23:56;5.60;99.90
14095;DHT22;18096;48.142;16.290;2023-04-09T05:26:22;5.60;99.90
14095;DHT22;18096;48.142;16.290;2023-04-09T05:28:48;5.60;99.90
14095;DHT22;18096;48.142;16.290;2023-04-09T05:31:13;5.70;99.90
14095;DHT22;18096;48.142;16.290;2023-04-09T05:33:43;5.70;99.90
14095;DHT22;18096;48.142;16.290;2023-04-09T05:36:14;5.70;99.90
14095;DHT22;18096;48.142;16.290;2023-04-09T05:38:40;5.70;99.90
14095;DHT22;18096;48.142;16.290;2023-04-09T05:41:07;5.80;99.90
14095;DHT22;18096;48.142;16.290;2023-04-09T05:43:32;5.80;99.90
14095;DHT22;18096;48.142;16.290;2023-04-09T05:45:58;5.80;99.90
14095;DHT22;18096;48.142;16.290;2023-04-09T05:48:24;5.80;99.90
14095;DHT22;18096;48.142;16.290;2023-04-09T05:50:50;5.90;99.90
14095;DHT22;18096;48.142;16.290;2023-04-09T05:53:17;5.90;99.90
14095;DHT22;18096;48.142;16.290;2023-04-09T05:55:44;5.90;99.90
14095;DHT22;18096;48.142;16.290;2023-04-09T05:58:10;6.00;99.90
14095;DHT22;18096;48.142;16.290;2023-04-09T06:00:36;6.00;99.90
14095;DHT22;18096;48.142;16.290;2023-04-09T06:03:01;6.00;99.90
14095;DHT22;18096;48.142;16.290;2023-04-09T06:05:27;6.10;99.90
14095;DHT22;18096;48.142;16.290;2023-04-09T06:07:53;6.10;99.90
14095;DHT22;18096;48.142;16.290;2023-04-09T06:10:18;6.10;99.90
14095;DHT22;18096;48.142;16.290;2023-04-09T06:12:44;6.20;99.90
14095;DHT22;18096;48.142;16.290;2023-04-09T06:15:10;6.20;99.90
14095;DHT22;18096;48.142;16.290;2023-04-09T06:17:36;6.30;99.90
14095;DHT22;18096;48.142;16.290;2023-04-09T06:20:02;6.30;99.90
14095;DHT22;18096;48.142;16.290;2023-04-09T06:22:28;6.30;99.90
14095;DHT22;18096;48.142;16.290;2023-04-09T06:24:53;6.30;99.90
14095;DHT22;18096;48.142;16.290;2023-04-09T06:27:19;6.40;99.90
14095;DHT22;18096;48.142;16.290;2023-04-09T06:29:46;6.50;99.90
14095;DHT22;18096;48.142;16.290;2023-04-09T06:32:12;6.60;99.90
14095;DHT22;18096;48.142;16.290;2023-04-09T06:34:37;6.60;99.90
14095;DHT22;18096;48.142;16.290;2023-04-09T06:37:03;6.70;99.90
14095;DHT22;18096;48.142;16.290;2023-04-09T06:39:29;6.70;99.90
14095;DHT22;18096;48.142;16.290;2023-04-09T06:41:55;6.80;99.90
14095;DHT22;18096;48.142;16.290;2023-04-09T06:44:20;6.80;99.90
14095;DHT22;18096;48.142;16.290;2023-04-09T06:46:46;6.90;99.90
14095;DHT22;18096;48.142;16.290;2023-04-09T06:49:12;6.90;99.90
14095;DHT22;18096;48.142;16.290;2023-04-09T06:51:37;6.90;99.90
14095;DHT22;18096;48.142;16.290;2023-04-09T06:54:03;6.90;99.90
14095;DHT22;18096;48.142;16.290;2023-04-09T06:56:29;7.00;99.90
14095;DHT22;18096;48.142;16.290;2023-04-09T06:58:55;7.00;99.90
14095;DHT22;18096;48.142;16.290;2023-04-09T07:01:20;7.00;99.90
14095;DHT22;18096;48.142;16.290;2023-04-09T07:03:46;7.00;99.90
14095;DHT22;18096;48.142;16.290;2023-04-09T07:06:12;7.00;99.90
14095;DHT22;18096;48.142;16.290;2023-04-09T07:08:37;7.00;99.90
14095;DHT22;18096;48.142;16.290;2023-04-09T07:11:03;7.00;99.90
14095;DHT22;18096;48.142;16.290;2023-04-09T07:13:29;7.10;99.90
14095;DHT22;18096;48.142;16.290;2023-04-09T07:15:55;7.10;99.90
14095;DHT22;18096;48.142;16.290;2023-04-09T07:18:21;7.20;99.90
14095;DHT22;18096;48.142;16.290;2023-04-09T07:20:46;7.30;99.90
14095;DHT22;18096;48.142;16.290;2023-04-09T07:23:12;7.30;99.90
14095;DHT22;18096;48.142;16.290;2023-04-09T07:25:38;7.40;99.90
14095;DHT22;18096;48.142;16.290;2023-04-09T07:28:03;7.50;99.90
14095;DHT22;18096;48.142;16.290;2023-04-09T07:30:29;7.50;99.90
14095;DHT22;18096;48.142;16.290;2023-04-09T07:32:55;7.50;99.90
14095;DHT22;18096;48.142;16.290;2023-04-09T07:35:20;7.60;99.90
14095;DHT22;18096;48.142;16.290;2023-04-09T07:37:46;7.60;99.90
14095;DHT22;18096;48.142;16.290;2023-04-09T07:40:12;7.70;99.90
14095;DHT22;18096;48.142;16.290;2023-04-09T07:42:38;7.70;99.90
14095;DHT22;18096;48.142;16.290;2023-04-09T07:45:05;7.70;99.90
14095;DHT22;18096;48.142;16.290;2023-04-09T07:47:30;7.80;99.90
14095;DHT22;18096;48.142;16.290;2023-04-09T07:49:57;7.80;99.90
14095;DHT22;18096;48.142;16.290;2023-04-09T07:52:22;7.80;99.90
14095;DHT22;18096;48.142;16.290;2023-04-09T07:54:48;7.80;99.90
14095;DHT22;18096;48.142;16.290;2023-04-09T07:57:14;7.80;99.90
14095;DHT22;18096;48.142;16.290;2023-04-09T07:59:39;7.70;99.90
14095;DHT22;18096;48.142;16.290;2023-04-09T08:02:06;7.70;99.90
14095;DHT22;18096;48.142;16.290;2023-04-09T08:04:32;7.70;99.90
14095;DHT22;18096;48.142;16.290;2023-04-09T08:06:57;7.80;99.90
14095;DHT22;18096;48.142;16.290;2023-04-09T08:09:23;7.70;99.90
14095;DHT22;18096;48.142;16.290;2023-04-09T08:11:49;7.70;99.90
14095;DHT22;18096;48.142;16.290;2023-04-09T08:14:15;7.80;99.90
14095;DHT22;18096;48.142;16.290;2023-04-09T08:16:43;7.70;99.90
14095;DHT22;18096;48.142;16.290;2023-04-09T08:19:10;7.80;99.90
14095;DHT22;18096;48.142;16.290;2023-04-09T08:21:37;7.80;99.90
14095;DHT22;18096;48.142;16.290;2023-04-09T08:24:04;7.90;99.90
14095;DHT22;18096;48.142;16.290;2023-04-09T08:26:30;7.90;99.90
14095;DHT22;18096;48.142;16.290;2023-04-09T08:28:56;7.90;99.90
14095;DHT22;18096;48.142;16.290;2023-04-09T08:31:22;8.00;99.90
14095;DHT22;18096;48.142;16.290;2023-04-09T08:33:48;8.00;99.90
14095;DHT22;18096;48.142;16.290;2023-04-09T08:36:13;8.00;99.90
14095;DHT22;18096;48.142;16.290;2023-04-09T08:38:40;8.10;99.90
14095;DHT22;18096;48.142;16.290;2023-04-09T08:41:06;8.10;99.90
14095;DHT22;18096;48.142;16.290;2023-04-09T08:43:32;8.20;99.90
14095;DHT22;18096;48.142;16.290;2023-04-09T08:46:00;8.20;99.90
14095;DHT22;18096;48.142;16.290;2023-04-09T08:48:28;8.20;99.90
14095;DHT22;18096;48.142;16.290;2023-04-09T08:50:54;8.20;99.90
14095;DHT22;18096;48.142;16.290;2023-04-09T08:53:20;8.20;99.90
14095;DHT22;18096;48.142;16.290;2023-04-09T08:55:47;8.20;99.90
14095;DHT22;18096;48.142;16.290;2023-04-09T08:58:12;8.30;99.90
14095;DHT22;18096;48.142;16.290;2023-04-09T09:00:38;8.40;99.90
14095;DHT22;18096;48.142;16.290;2023-04-09T09:03:10;8.40;99.90
14095;DHT22;18096;48.142;16.290;2023-04-09T09:05:43;8.50;99.90
14095;DHT22;18096;48.142;16.290;2023-04-09T09:08:11;8.50;99.90
14095;DHT22;18096;48.142;16.290;2023-04-09T09:10:44;8.50;99.90
14095;DHT22;18096;48.142;16.290;2023-04-09T09:13:22;8.60;99.90
14095;DHT22;18096;48.142;16.290;2023-04-09T09:16:10;8.70;99.90
14095;DHT22;18096;48.142;16.290;2023-04-09T09:18:38;8.80;99.90
14095;DHT22;18096;48.142;16.290;2023-04-09T09:21:16;8.80;99.90
14095;DHT22;18096;48.142;16.290;2023-04-09T09:23:44;8.90;99.90
14095;DHT22;18096;48.142;16.290;2023-04-09T09:26:18;8.90;99.90
14095;DHT22;18096;48.142;16.290;2023-04-09T09:28:45;9.00;99.90
14095;DHT22;18096;48.142;16.290;2023-04-09T09:31:13;8.90;99.90
14095;DHT22;18096;48.142;16.290;2023-04-09T09:33:39;8.90;99.90
14095;DHT22;18096;48.142;16.290;2023-04-09T09:36:06;8.90;99.90
14095;DHT22;18096;48.142;16.290;2023-04-09T09:38:49;8.80;99.90
14095;DHT22;18096;48.142;16.290;2023-04-09T09:41:16;8.70;99.90
14095;DHT22;18096;48.142;16.290;2023-04-09T09:43:42;8.60;99.90
14095;DHT22;18096;48.142;16.290;2023-04-09T09:46:10;8.60;99.90
14095;DHT22;18096;48.142;16.290;2023-04-09T09:48:36;8.60;99.90
14095;DHT22;18096;48.142;16.290;2023-04-09T09:51:03;8.60;99.90
14095;DHT22;18096;48.142;16.290;2023-04-09T09:53:35;8.60;99.90
14095;DHT22;18096;48.142;16.290;2023-04-09T09:56:04;8.50;99.90
14095;DHT22;18096;48.142;16.290;2023-04-09T09:58:36;8.60;99.90
14095;DHT22;18096;48.142;16.290;2023-04-09T10:01:10;8.60;99.90
14095;DHT22;18096;48.142;16.290;2023-04-09T10:03:38;8.60;99.90
14095;DHT22;18096;48.142;16.290;2023-04-09T10:06:07;8.70;99.90
14095;DHT22;18096;48.142;16.290;2023-04-09T10:08:33;8.70;99.90
14095;DHT22;18096;48.142;16.290;2023-04-09T10:11:03;8.80;99.90
14095;DHT22;18096;48.142;16.290;2023-04-09T10:13:59;8.90;99.90
14095;DHT22;18096;48.142;16.290;2023-04-09T10:16:25;9.10;99.90
14095;DHT22;18096;48.142;16.290;2023-04-09T10:18:56;9.20;99.90
14095;DHT22;18096;48.142;16.290;2023-04-09T10:21:42;9.40;99.90
14095;DHT22;18096;48.142;16.290;2023-04-09T10:24:09;9.50;99.90
14095;DHT22;18096;48.142;16.290;2023-04-09T10:26:39;9.50;99.90
14095;DHT22;18096;48.142;16.290;2023-04-09T10:29:10;9.60;99.90
14095;DHT22;18096;48.142;16.290;2023-04-09T10:34:19;9.70;99.90
14095;DHT22;18096;48.142;16.290;2023-04-09T10:36:49;9.70;99.90
14095;DHT22;18096;48.142;16.290;2023-04-09T10:39:17;9.70;99.90
14095;DHT22;18096;48.142;16.290;2023-04-09T10:41:43;9.80;99.90
14095;DHT22;18096;48.142;16.290;2023-04-09T10:44:25;9.80;99.90
14095;DHT22;18096;48.142;16.290;2023-04-09T10:46:59;9.80;99.90
14095;DHT22;18096;48.142;16.290;2023-04-09T10:49:37;9.90;99.90
14095;DHT22;18096;48.142;16.290;2023-04-09T10:52:08;9.90;99.90
14095;DHT22;18096;48.142;16.290;2023-04-09T10:59:36;10.00;99.90
14095;DHT22;18096;48.142;16.290;2023-04-09T11:02:06;10.10;99.90
14095;DHT22;18096;48.142;16.290;2023-04-09T11:07:18;10.10;99.90
14095;DHT22;18096;48.142;16.290;2023-04-09T11:09:43;10.20;99.90
14095;DHT22;18096;48.142;16.290;2023-04-09T11:12:10;10.30;99.90
14095;DHT22;18096;48.142;16.290;2023-04-09T11:14:36;10.30;99.90
14095;DHT22;18096;48.142;16.290;2023-04-09T11:17:05;10.20;99.90
14095;DHT22;18096;48.142;16.290;2023-04-09T11:19:32;10.10;99.90
14095;DHT22;18096;48.142;16.290;2023-04-09T11:21:58;10.10;99.90
14095;DHT22;18096;48.142;16.290;2023-04-09T11:24:24;10.10;99.90
14095;DHT22;18096;48.142;16.290;2023-04-09T11:26:50;10.10;99.90
14095;DHT22;18096;48.142;16.290;2023-04-09T11:29:15;10.10;99.90
14095;DHT22;18096;48.142;16.290;2023-04-09T11:31:45;10.10;99.90
14095;DHT22;18096;48.142;16.290;2023-04-09T11:34:10;10.10;99.90
14095;DHT22;18096;48.142;16.290;2023-04-09T11:36:37;10.10;99.90
14095;DHT22;18096;48.142;16.290;2023-04-09T11:39:03;10.10;99.90
14095;DHT22;18096;48.142;16.290;2023-04-09T11:41:36;10.10;99.90
14095;DHT22;18096;48.142;16.290;2023-04-09T11:44:06;10.10;99.90
14095;DHT22;18096;48.142;16.290;2023-04-09T11:46:33;10.00;99.90
14095;DHT22;18096;48.142;16.290;2023-04-09T11:49:00;9.90;99.90
14095;DHT22;18096;48.142;16.290;2023-04-09T11:51:26;9.90;99.90
14095;DHT22;18096;48.142;16.290;2023-04-09T11:53:53;9.80;99.90
14095;DHT22;18096;48.142;16.290;2023-04-09T11:56:18;9.80;99.90
14095;DHT22;18096;48.142;16.290;2023-04-09T11:58:46;9.70;99.90
14095;DHT22;18096;48.142;16.290;2023-04-09T12:01:12;9.60;99.90
14095;DHT22;18096;48.142;16.290;2023-04-09T12:03:38;9.50;99.90
14095;DHT22;18096;48.142;16.290;2023-04-09T12:06:05;9.40;99.90
14095;DHT22;18096;48.142;16.290;2023-04-09T12:08:35;9.30;99.90
14095;DHT22;18096;48.142;16.290;2023-04-09T12:11:09;9.30;99.90
14095;DHT22;18096;48.142;16.290;2023-04-09T12:13:35;9.30;99.90
14095;DHT22;18096;48.142;16.290;2023-04-09T12:16:01;9.40;99.90
14095;DHT22;18096;48.142;16.290;2023-04-09T12:18:27;9.40;99.90
14095;DHT22;18096;48.142;16.290;2023-04-09T12:20:53;9.40;99.90
14095;DHT22;18096;48.142;16.290;2023-04-09T12:23:19;9.50;99.90
14095;DHT22;18096;48.142;16.290;2023-04-09T12:25:44;9.60;99.90
14095;DHT22;18096;48.142;16.290;2023-04-09T12:28:13;9.70;99.90
14095;DHT22;18096;48.142;16.290;2023-04-09T12:30:40;9.80;99.90
14095;DHT22;18096;48.142;16.290;2023-04-09T12:33:06;9.90;99.90
14095;DHT22;18096;48.142;16.290;2023-04-09T12:35:31;10.00;99.90
14095;DHT22;18096;48.142;16.290;2023-04-09T12:37:58;10.10;99.90
14095;DHT22;18096;48.142;16.290;2023-04-09T12:40:24;10.20;99.90
14095;DHT22;18096;48.142;16.290;2023-04-09T12:42:50;10.20;99.90
14095;DHT22;18096;48.142;16.290;2023-04-09T12:45:17;10.30;99.90
14095;DHT22;18096;48.142;16.290;2023-04-09T12:47:43;10.40;99.90
14095;DHT22;18096;48.142;16.290;2023-04-09T12:50:10;10.40;99.90
14095;DHT22;18096;48.142;16.290;2023-04-09T12:52:36;10.50;99.90
14095;DHT22;18096;48.142;16.290;2023-04-09T12:55:03;10.50;99.90
14095;DHT22;18096;48.142;16.290;2023-04-09T12:57:29;10.60;99.90
14095;DHT22;18096;48.142;16.290;2023-04-09T12:59:54;10.60;99.90
14095;DHT22;18096;48.142;16.290;2023-04-09T13:02:21;10.60;99.90
14095;DHT22;18096;48.142;16.290;2023-04-09T13:04:47;10.60;99.90
14095;DHT22;18096;48.142;16.290;2023-04-09T13:07:14;10.60;99.90
14095;DHT22;18096;48.142;16.290;2023-04-09T13:09:46;10.50;99.90
14095;DHT22;18096;48.142;16.290;2023-04-09T13:12:15;10.50;99.90
14095;DHT22;18096;48.142;16.290;2023-04-09T13:14:42;10.40;99.90
14095;DHT22;18096;48.142;16.290;2023-04-09T13:17:10;10.40;99.90
14095;DHT22;18096;48.142;16.290;2023-04-09T13:19:35;10.30;99.90
14095;DHT22;18096;48.142;16.290;2023-04-09T13:22:01;10.30;99.90
14095;DHT22;18096;48.142;16.290;2023-04-09T13:24:27;10.20;99.90
14095;DHT22;18096;48.142;16.290;2023-04-09T13:26:52;10.20;99.90
14095;DHT22;18096;48.142;16.290;2023-04-09T13:29:18;10.20;99.90
14095;DHT22;18096;48.142;16.290;2023-04-09T13:31:44;10.10;99.90
14095;DHT22;18096;48.142;16.290;2023-04-09T13:34:10;10.00;99.90
14095;DHT22;18096;48.142;16.290;2023-04-09T13:36:36;10.00;99.90
14095;DHT22;18096;48.142;16.290;2023-04-09T13:39:01;9.90;99.90
14095;DHT22;18096;48.142;16.290;2023-04-09T13:41:33;9.90;99.90
14095;DHT22;18096;48.142;16.290;2023-04-09T13:43:59;9.90;99.90
14095;DHT22;18096;48.142;16.290;2023-04-09T13:46:25;9.90;99.90
14095;DHT22;18096;48.142;16.290;2023-04-09T13:48:51;9.90;99.90
14095;DHT22;18096;48.142;16.290;2023-04-09T13:51:17;9.90;99.90
14095;DHT22;18096;48.142;16.290;2023-04-09T13:53:43;9.90;99.90
14095;DHT22;18096;48.142;16.290;2023-04-09T13:56:10;9.90;99.90
14095;DHT22;18096;48.142;16.290;2023-04-09T13:58:35;10.00;99.90
14095;DHT22;18096;48.142;16.290;2023-04-09T14:01:01;10.00;99.90
14095;DHT22;18096;48.142;16.290;2023-04-09T14:03:27;10.10;99.90
14095;DHT22;18096;48.142;16.290;2023-04-09T14:05:52;10.10;99.90
14095;DHT22;18096;48.142;16.290;2023-04-09T14:08:18;10.20;99.90
14095;DHT22;18096;48.142;16.290;2023-04-09T14:10:43;10.20;99.90
14095;DHT22;18096;48.142;16.290;2023-04-09T14:13:09;10.20;99.90
14095;DHT22;18096;48.142;16.290;2023-04-09T14:15:36;10.30;99.90
14095;DHT22;18096;48.142;16.290;2023-04-09T14:18:02;10.30;99.90
14095;DHT22;18096;48.142;16.290;2023-04-09T14:20:28;10.30;99.90
14095;DHT22;18096;48.142;16.290;2023-04-09T14:22:53;10.40;99.90
14095;DHT22;18096;48.142;16.290;2023-04-09T14:25:19;10.40;99.90
14095;DHT22;18096;48.142;16.290;2023-04-09T14:27:45;10.40;99.90
14095;DHT22;18096;48.142;16.290;2023-04-09T14:30:12;10.50;99.90
14095;DHT22;18096;48.142;16.290;2023-04-09T14:32:38;10.50;99.90
14095;DHT22;18096;48.142;16.290;2023-04-09T14:35:04;10.50;99.90
14095;DHT22;18096;48.142;16.290;2023-04-09T14:37:30;10.50;99.90
14095;DHT22;18096;48.142;16.290;2023-04-09T14:39:56;10.50;99.90
14095;DHT22;18096;48.142;16.290;2023-04-09T14:42:22;10.40;99.90
14095;DHT22;18096;48.142;16.290;2023-04-09T14:44:47;10.50;99.90
14095;DHT22;18096;48.142;16.290;2023-04-09T14:47:13;10.50;99.90
14095;DHT22;18096;48.142;16.290;2023-04-09T14:49:39;10.40;99.90
14095;DHT22;18096;48.142;16.290;2023-04-09T14:52:04;10.40;99.90
14095;DHT22;18096;48.142;16.290;2023-04-09T14:54:30;10.40;99.90
14095;DHT22;18096;48.142;16.290;2023-04-09T14:56:56;10.40;99.90
14095;DHT22;18096;48.142;16.290;2023-04-09T14:59:23;10.30;99.90
14095;DHT22;18096;48.142;16.290;2023-04-09T15:01:50;10.30;99.90
14095;DHT22;18096;48.142;16.290;2023-04-09T15:04:15;10.20;99.90
14095;DHT22;18096;48.142;16.290;2023-04-09T15:06:41;10.20;99.90
14095;DHT22;18096;48.142;16.290;2023-04-09T15:09:07;10.20;99.90
14095;DHT22;18096;48.142;16.290;2023-04-09T15:11:32;10.20;99.90
14095;DHT22;18096;48.142;16.290;2023-04-09T15:13:58;10.20;99.90
14095;DHT22;18096;48.142;16.290;2023-04-09T15:16:25;10.20;99.90
14095;DHT22;18096;48.142;16.290;2023-04-09T15:18:53;10.20;99.90
14095;DHT22;18096;48.142;16.290;2023-04-09T15:21:22;10.20;99.90
14095;DHT22;18096;48.142;16.290;2023-04-09T15:23:51;10.20;99.90
14095;DHT22;18096;48.142;16.290;2023-04-09T15:26:17;10.20;99.90
14095;DHT22;18096;48.142;16.290;2023-04-09T15:28:43;10.20;99.90
14095;DHT22;18096;48.142;16.290;2023-04-09T15:31:08;10.30;99.90
14095;DHT22;18096;48.142;16.290;2023-04-09T15:33:34;10.30;99.90
14095;DHT22;18096;48.142;16.290;2023-04-09T15:36:00;10.30;99.90
14095;DHT22;18096;48.142;16.290;2023-04-09T15:38:26;10.30;99.90
14095;DHT22;18096;48.142;16.290;2023-04-09T15:40:53;10.20;99.90
14095;DHT22;18096;48.142;16.290;2023-04-09T15:43:19;10.20;99.90
14095;DHT22;18096;48.142;16.290;2023-04-09T15:45:48;10.20;99.90
14095;DHT22;18096;48.142;16.290;2023-04-09T15:48:15;10.20;99.90